Time;durP1;ratioP1;P1;durP2;ratioP2;P2;SDS_P1;SDS_P2;PMS_P1;PMS_P2;Temp;Humidity;BMP_temperature;BMP_pressure;BME280_temperature;BME280_humidity;BME280_pressure;Samples;Min_cycle;Max_cycle;Signal;HPM_P1;HPM_P2
2023/08/26 00:00:35;;;;;;;23.70;17.77;;;;;;;17.66;88.63;100582.72;5053649;28;20192;-71
2023/08/26 00:03:02;;;;;;;27.37;18.10;;;;;;;17.67;88.64;100592.50;5053328;28;20186;-71
2023/08/26 00:05:28;;;;;;;33.40;18.73;;;;;;;17.72;88.21;100586.50;5053324;28;20187;-71
2023/08/26 00:07:55;;;;;;;27.57;17.90;;;;;;;17.72;88.65;100587.34;5053736;28;20268;-71
2023/08/26 00:10:22;;;;;;;24.90;18.37;;;;;;;17.84;88.36;100590.28;5053212;28;20183;-71
2023/08/26 00:12:49;;;;;;;25.53;18.07;;;;;;;17.82;88.29;100581.56;5053490;28;20198;-71
2023/08/26 00:15:15;;;;;;;23.37;17.80;;;;;;;17.84;88.35;100578.63;5053204;28;20195;-71
2023/08/26 00:17:42;;;;;;;25.10;17.20;;;;;;;17.78;88.67;100572.16;5053066;28;20219;-72
2023/08/26 00:20:09;;;;;;;30.17;18.90;;;;;;;17.77;88.74;100584.88;5053386;28;20550;-72
2023/08/26 00:22:37;;;;;;;27.63;18.40;;;;;;;17.76;88.64;100585.06;5053052;28;20294;-71
2023/08/26 00:25:03;;;;;;;29.30;19.03;;;;;;;17.78;88.91;100580.28;5053456;28;20187;-71
2023/08/26 00:27:30;;;;;;;32.37;18.20;;;;;;;17.81;88.89;100579.91;5053248;28;20612;-72
2023/08/26 00:29:56;;;;;;;31.00;18.73;;;;;;;17.79;89.16;100582.78;5053018;28;20183;-71
2023/08/26 00:32:23;;;;;;;28.40;18.90;;;;;;;17.85;88.70;100577.59;5052291;28;20187;-71
2023/08/26 00:34:51;;;;;;;31.47;19.20;;;;;;;17.85;88.89;100577.59;5053012;28;20179;-71
2023/08/26 00:37:18;;;;;;;29.33;17.73;;;;;;;17.80;89.04;100578.22;5053114;28;20567;-72
2023/08/26 00:39:46;;;;;;;25.60;17.53;;;;;;;17.80;89.19;100573.66;5051682;28;20202;-71
2023/08/26 00:42:12;;;;;;;28.30;18.27;;;;;;;17.72;89.27;100567.56;5051553;28;20215;-71
2023/08/26 00:44:39;;;;;;;31.73;19.37;;;;;;;17.71;89.62;100574.00;5052870;28;20196;-71
2023/08/26 00:47:07;;;;;;;30.27;18.67;;;;;;;17.68;89.49;100580.66;5051843;28;20717;-71
2023/08/26 00:49:34;;;;;;;29.97;19.13;;;;;;;17.65;89.62;100580.25;5051537;28;20230;-71
2023/08/26 00:52:01;;;;;;;30.20;19.50;;;;;;;17.73;89.39;100575.50;5053079;28;20183;-71
2023/08/26 00:54:28;;;;;;;33.83;20.50;;;;;;;17.73;89.22;100572.78;5052790;28;20188;-71
2023/08/26 00:56:56;;;;;;;31.23;19.17;;;;;;;17.72;89.22;100573.81;5052378;28;20532;-71
2023/08/26 00:59:22;;;;;;;32.03;20.50;;;;;;;17.69;90.29;100570.69;5051447;28;20225;-71
2023/08/26 01:01:50;;;;;;;34.43;21.20;;;;;;;17.66;90.31;100571.06;5052644;28;20736;-71
2023/08/26 01:04:17;;;;;;;38.03;20.30;;;;;;;17.71;90.19;100574.84;5051442;28;20195;-70
2023/08/26 01:06:44;;;;;;;35.10;20.47;;;;;;;17.75;89.84;100580.69;5051406;28;20202;-70
2023/08/26 01:09:11;;;;;;;35.20;21.77;;;;;;;17.82;89.54;100583.44;5052567;28;20214;-71
2023/08/26 01:11:46;;;;;;;40.67;22.13;;;;;;;17.65;90.21;100580.25;5052869;28;20572;-71
2023/08/26 01:14:29;;;;;;;42.60;23.13;;;;;;;17.70;89.92;100566.94;5051237;28;20237;-71
2023/08/26 01:16:57;;;;;;;47.87;25.13;;;;;;;17.70;89.58;100577.75;5051549;28;20640;-70
2023/08/26 01:19:31;;;;;;;44.87;25.23;;;;;;;17.72;90.14;100586.50;5053058;28;20578;-70
2023/08/26 01:22:02;;;;;;;52.07;26.23;;;;;;;17.64;90.47;100581.28;5051216;28;20249;-71
2023/08/26 01:24:30;;;;;;;45.10;25.73;;;;;;;17.62;90.50;100583.31;5051274;28;20282;-70
2023/08/26 01:26:58;;;;;;;55.03;27.80;;;;;;;17.65;90.18;100591.88;5052775;28;20193;-70
2023/08/26 01:29:25;;;;;;;56.57;27.03;;;;;;;17.61;90.68;100582.50;5051166;28;20265;-71
2023/08/26 01:32:06;;;;;;;53.57;27.40;;;;;;;17.54;90.96;100588.88;5051188;28;20191;-71
2023/08/26 01:34:35;;;;;;;44.87;25.27;;;;;;;17.63;90.08;100590.41;5052753;28;20576;-71
2023/08/26 01:37:03;;;;;;;52.27;26.40;;;;;;;17.56;90.12;100598.47;5051214;28;20227;-71
2023/08/26 01:39:30;;;;;;;46.70;25.80;;;;;;;17.63;89.56;100601.22;5055932;28;20216;-71
2023/08/26 01:42:00;;;;;;;49.97;25.73;;;;;;;17.59;90.00;100608.91;5054559;28;20638;-71
2023/08/26 01:44:28;;;;;;;53.50;27.47;;;;;;;17.62;89.74;100602.25;5055927;28;20183;-71
2023/08/26 01:46:55;;;;;;;53.80;26.03;;;;;;;17.58;89.86;100609.94;5055832;28;20558;-71
2023/08/26 01:49:22;;;;;;;47.17;25.17;;;;;;;17.57;89.72;100605.53;5055716;28;20236;-71
2023/08/26 01:51:49;;;;;;;42.53;24.17;;;;;;;17.55;89.37;100606.75;5056034;28;20183;-71
2023/08/26 01:54:16;;;;;;;43.70;24.37;;;;;;;17.50;89.26;100607.38;5054439;28;20199;-71
2023/08/26 01:56:42;;;;;;;48.03;21.60;;;;;;;17.53;88.84;100616.94;5054389;28;20201;-71
2023/08/26 01:59:10;;;;;;;37.17;21.33;;;;;;;17.46;89.01;100603.38;5054335;28;20219;-71
2023/08/26 02:01:37;;;;;;;35.83;21.73;;;;;;;17.55;87.93;100618.41;5054162;28;20261;-71
2023/08/26 02:04:04;;;;;;;33.20;21.03;;;;;;;17.40;88.43;100606.88;5054268;28;20198;-71
2023/08/26 02:06:30;;;;;;;32.80;20.20;;;;;;;17.47;87.69;100601.53;5055436;28;20662;-71
2023/08/26 02:08:57;;;;;;;29.27;19.23;;;;;;;17.45;87.73;100593.59;5054113;28;20563;-71
2023/08/26 02:11:23;;;;;;;32.90;19.33;;;;;;;17.47;87.39;100593.41;5054122;28;20681;-71
2023/08/26 02:13:53;;;;;;;27.03;17.77;;;;;;;17.41;86.70;100611.25;5054038;28;20198;-70
2023/08/26 02:16:19;;;;;;;26.40;17.23;;;;;;;17.38;86.57;100606.25;5054308;28;20197;-70
2023/08/26 02:18:46;;;;;;;30.30;17.57;;;;;;;17.32;86.82;100599.78;5054055;28;20690;-71
2023/08/26 02:21:12;;;;;;;26.17;17.30;;;;;;;17.28;87.11;100605.75;5054170;28;20191;-71
2023/08/26 02:23:39;;;;;;;28.47;18.77;;;;;;;17.21;87.27;100615.69;5055128;28;20716;-71
2023/08/26 02:26:05;;;;;;;19.40;13.50;;;;;;;17.01;85.38;100629.06;5053820;28;20191;-70
2023/08/26 02:28:32;;;;;;;12.93;11.57;;;;;;;16.83;82.87;100626.84;5053758;28;20622;-70
2023/08/26 02:31:01;;;;;;;13.20;8.90;;;;;;;16.59;81.79;100634.50;5053991;28;20196;-71
2023/08/26 02:33:27;;;;;;;9.87;8.23;;;;;;;16.47;81.02;100642.22;5053708;28;20573;-70
2023/08/26 02:35:55;;;;;;;9.60;7.70;;;;;;;16.26;81.29;100632.25;5053663;28;20195;-70
2023/08/26 02:38:21;;;;;;;7.60;6.90;;;;;;;16.12;81.34;100635.84;5053561;28;20220;-70
2023/08/26 02:40:55;;;;;;;6.97;6.40;;;;;;;16.04;80.85;100637.81;5053552;28;20195;-70
2023/08/26 02:43:22;;;;;;;5.03;4.83;;;;;;;15.95;80.74;100645.19;5053703;28;20211;-70
2023/08/26 02:45:55;;;;;;;4.73;4.47;;;;;;;15.75;80.36;100653.00;5054709;28;20187;-70
2023/08/26 02:48:23;;;;;;;6.20;5.30;;;;;;;15.69;80.92;100658.31;5054500;28;20229;-70
2023/08/26 02:50:57;;;;;;;4.67;4.37;;;;;;;15.57;80.96;100663.31;5053337;28;20191;-69
2023/08/26 02:53:25;;;;;;;8.20;4.20;;;;;;;15.39;80.65;100660.13;5054570;28;20191;-70
2023/08/26 02:55:52;;;;;;;9.63;4.30;;;;;;;15.26;80.37;100668.84;5054792;28;20617;-69
2023/08/26 02:58:19;;;;;;;3.37;3.10;;;;;;;15.10;80.84;100663.59;5054668;28;20765;-70
2023/08/26 03:00:47;;;;;;;4.20;3.17;;;;;;;15.01;80.47;100670.06;5054922;28;20535;-69
2023/08/26 03:03:14;;;;;;;6.20;2.90;;;;;;;14.92;81.13;100674.69;5053169;28;20766;-70
2023/08/26 03:05:41;;;;;;;12.03;3.17;;;;;;;14.85;81.40;100679.09;5053118;28;20196;-69
2023/08/26 03:08:08;;;;;;;4.83;2.63;;;;;;;14.86;81.54;100682.63;5054418;28;20221;-69
2023/08/26 03:10:34;;;;;;;7.10;3.17;;;;;;;14.78;81.32;100688.94;5052960;28;20199;-69
2023/08/26 03:13:01;;;;;;;3.63;2.80;;;;;;;14.77;82.20;100687.25;5052913;28;20210;-69
2023/08/26 03:15:29;;;;;;;4.20;3.77;;;;;;;14.73;81.99;100688.63;5053103;28;20203;-69
2023/08/26 03:17:56;;;;;;;5.37;2.87;;;;;;;14.67;82.45;100691.19;5052772;28;20762;-69
2023/08/26 03:20:23;;;;;;;5.20;3.33;;;;;;;14.66;81.88;100693.06;5052841;28;20179;-69
2023/08/26 03:22:50;;;;;;;3.60;3.30;;;;;;;14.66;82.11;100689.53;5052692;28;20211;-69
2023/08/26 03:25:17;;;;;;;4.03;3.73;;;;;;;14.60;81.96;100683.84;5052761;28;20198;-69
2023/08/26 03:27:43;;;;;;;10.40;3.43;;;;;;;14.59;81.88;100692.94;5052631;28;20261;-69
2023/08/26 03:30:10;;;;;;;3.13;2.93;;;;;;;14.57;81.84;100691.44;5052581;28;20195;-69
2023/08/26 03:32:37;;;;;;;8.83;3.93;;;;;;;14.66;80.90;100686.81;5053928;28;20187;-69
2023/08/26 03:35:04;;;;;;;6.77;3.67;;;;;;;14.66;81.02;100694.91;5053823;28;20187;-69
2023/08/26 03:37:31;;;;;;;4.37;3.70;;;;;;;14.67;81.35;100699.28;5053258;28;20187;-70
2023/08/26 03:39:59;;;;;;;7.00;3.67;;;;;;;14.58;81.40;100710.09;5052491;28;20203;-69
2023/08/26 03:42:26;;;;;;;8.17;3.30;;;;;;;14.60;80.98;100702.66;5052366;28;20264;-69
2023/08/26 03:44:53;;;;;;;4.10;3.10;;;;;;;14.71;80.47;100712.19;5053634;28;20190;-69
2023/08/26 03:47:19;;;;;;;7.50;3.67;;;;;;;14.75;80.30;100709.97;5052226;28;20191;-70
2023/08/26 03:49:46;;;;;;;4.60;4.00;;;;;;;14.62;81.10;100706.03;5052298;28;20655;-69
2023/08/26 03:52:12;;;;;;;5.83;3.47;;;;;;;14.67;81.27;100712.72;5052232;28;20198;-69
2023/08/26 03:54:39;;;;;;;3.67;2.93;;;;;;;14.53;81.61;100709.78;5053475;28;20201;-69
2023/08/26 03:57:05;;;;;;;4.73;3.87;;;;;;;14.59;81.87;100714.47;5052185;28;20203;-69
2023/08/26 03:59:31;;;;;;;16.83;3.73;;;;;;;14.54;81.47;100711.47;5054395;28;20211;-69
2023/08/26 04:01:58;;;;;;;6.80;3.80;;;;;;;14.52;81.44;100713.47;5052888;28;20238;-69
2023/08/26 04:04:25;;;;;;;7.77;3.37;;;;;;;14.51;82.22;100711.00;5052040;28;20221;-69
2023/08/26 04:06:52;;;;;;;3.80;3.60;;;;;;;14.47;82.24;100715.06;5053844;28;20183;-69
2023/08/26 04:09:19;;;;;;;6.90;4.10;;;;;;;14.52;82.71;100716.19;5052337;28;20565;-69
2023/08/26 04:11:45;;;;;;;4.00;3.70;;;;;;;14.51;82.88;100721.75;5051973;28;20198;-69
2023/08/26 04:14:12;;;;;;;3.70;3.60;;;;;;;14.52;82.65;100723.41;5051773;28;20214;-69
2023/08/26 04:16:38;;;;;;;6.10;3.97;;;;;;;14.43;83.22;100729.84;5051945;28;20613;-69
2023/08/26 04:19:05;;;;;;;4.37;4.03;;;;;;;14.37;83.58;100725.19;5053400;28;20211;-69
2023/08/26 04:21:32;;;;;;;4.27;3.57;;;;;;;14.36;83.74;100727.03;5051904;28;20187;-69
2023/08/26 04:23:58;;;;;;;3.30;3.03;;;;;;;14.35;83.63;100728.03;5051768;28;20269;-69
2023/08/26 04:26:25;;;;;;;7.27;4.17;;;;;;;14.36;83.38;100729.72;5051825;28;20194;-69
2023/08/26 04:28:51;;;;;;;9.30;3.90;;;;;;;14.37;83.48;100727.88;5051729;28;20623;-69
2023/08/26 04:31:18;;;;;;;3.80;3.70;;;;;;;14.32;83.72;100730.22;5053080;28;20210;-73
2023/08/26 04:33:44;;;;;;;4.00;3.77;;;;;;;14.38;82.83;100732.25;5051712;28;20659;-73
2023/08/26 04:36:11;;;;;;;7.50;3.80;;;;;;;14.36;83.33;100735.09;5051734;28;20589;-73
2023/08/26 04:38:37;;;;;;;4.33;4.13;;;;;;;14.37;83.22;100738.63;5053472;28;20219;-73
2023/08/26 04:41:05;;;;;;;3.80;3.53;;;;;;;14.34;83.99;100739.75;5052004;28;20191;-73
2023/08/26 04:43:31;;;;;;;7.83;3.10;;;;;;;14.38;82.58;100738.47;5053070;28;20261;-73
2023/08/26 04:45:58;;;;;;;4.07;3.77;;;;;;;14.29;82.92;100741.31;5051628;28;20232;-73
2023/08/26 04:48:25;;;;;;;9.70;3.57;;;;;;;14.25;83.18;100740.00;5051818;28;20787;-73
2023/08/26 04:50:52;;;;;;;3.27;2.90;;;;;;;14.22;83.70;100754.63;5051643;28;20206;-69
2023/08/26 04:53:18;;;;;;;7.30;3.40;;;;;;;14.32;83.10;100755.25;5051587;28;20191;-70
2023/08/26 04:55:49;;;;;;;4.40;3.27;;;;;;;14.23;83.65;100756.31;5051603;28;20179;-70
2023/08/26 04:58:17;;;;;;;3.00;2.80;;;;;;;14.21;83.63;100760.19;5053305;28;20215;-70
2023/08/26 05:00:44;;;;;;;6.93;3.40;;;;;;;14.23;83.51;100761.69;5053036;28;20602;-70
2023/08/26 05:03:11;;;;;;;6.10;3.40;;;;;;;14.31;82.28;100767.03;5051344;28;20325;-70
2023/08/26 05:05:42;;;;;;;3.60;3.47;;;;;;;14.22;83.08;100770.75;5051998;28;20247;-69
2023/08/26 05:08:09;;;;;;;4.20;2.70;;;;;;;14.18;83.03;100772.13;5052948;28;20218;-70
2023/08/26 05:10:38;;;;;;;3.50;3.20;;;;;;;14.26;82.32;100772.06;5051376;28;20278;-70
2023/08/26 05:13:05;;;;;;;2.67;2.57;;;;;;;14.18;83.06;100774.81;5054664;28;20206;-69
2023/08/26 05:15:32;;;;;;;6.93;3.67;;;;;;;14.26;82.57;100773.97;5055195;28;20199;-69
2023/08/26 05:17:59;;;;;;;3.80;2.97;;;;;;;14.28;82.19;100780.81;5055292;28;20698;-70
2023/08/26 05:20:27;;;;;;;4.90;3.20;;;;;;;14.24;82.33;100775.97;5056404;28;20188;-69
2023/08/26 05:22:56;;;;;;;3.87;2.90;;;;;;;14.28;82.16;100777.28;5055529;28;20212;-69
2023/08/26 05:25:23;;;;;;;11.67;3.10;;;;;;;14.24;82.36;100786.72;5055010;28;20198;-69
2023/08/26 05:27:49;;;;;;;6.03;3.13;;;;;;;14.32;81.81;100789.38;5054925;28;20710;-69
2023/08/26 05:30:18;;;;;;;2.93;2.73;;;;;;;14.30;81.52;100786.84;5056431;28;20183;-69
2023/08/26 05:32:52;;;;;;;3.03;2.83;;;;;;;14.27;82.03;100789.91;5055800;28;20507;-69
2023/08/26 05:35:18;;;;;;;8.23;3.53;;;;;;;14.29;82.48;100790.56;5056070;28;20253;-69
2023/08/26 05:37:45;;;;;;;2.73;2.73;;;;;;;14.28;82.31;100794.28;5055982;28;20211;-70
2023/08/26 05:40:13;;;;;;;8.80;3.03;;;;;;;14.51;81.65;100791.69;5054747;28;20218;-70
2023/08/26 05:42:39;;;;;;;3.07;2.87;;;;;;;14.54;81.14;100797.56;5054811;28;20211;-70
2023/08/26 05:45:06;;;;;;;3.33;2.70;;;;;;;14.52;81.34;100804.94;5054638;28;20195;-69
2023/08/26 05:47:32;;;;;;;6.10;3.30;;;;;;;14.60;80.63;100802.22;5054516;28;20298;-70
2023/08/26 05:49:59;;;;;;;6.53;2.73;;;;;;;14.55;80.90;100798.41;5054496;28;20203;-69
2023/08/26 05:52:26;;;;;;;3.43;3.13;;;;;;;14.59;80.80;100803.25;5054499;28;20184;-69
2023/08/26 05:54:53;;;;;;;3.00;2.90;;;;;;;14.57;81.02;100807.13;5055740;28;20595;-69
2023/08/26 05:57:19;;;;;;;8.00;3.47;;;;;;;14.72;80.13;100791.09;5055837;28;20566;-70
2023/08/26 05:59:46;;;;;;;3.13;3.00;;;;;;;14.70;80.44;100788.56;5055610;28;20210;-69
2023/08/26 06:02:12;;;;;;;8.17;2.67;;;;;;;14.73;80.06;100795.44;5054221;28;20194;-69
2023/08/26 06:04:39;;;;;;;2.70;2.63;;;;;;;14.75;79.89;100796.09;5054263;28;20194;-69
2023/08/26 06:07:06;;;;;;;3.80;3.17;;;;;;;14.82;80.01;100791.69;5054290;28;20211;-69
2023/08/26 06:09:33;;;;;;;3.40;2.73;;;;;;;14.76;80.19;100787.88;5055367;28;20257;-69
2023/08/26 06:12:01;;;;;;;3.00;2.73;;;;;;;14.80;80.31;100788.34;5054105;28;20191;-69
2023/08/26 06:14:27;;;;;;;4.53;2.67;;;;;;;14.86;79.82;100785.75;5054309;28;20195;-69
2023/08/26 06:16:54;;;;;;;6.40;2.60;;;;;;;14.83;79.90;100782.59;5054022;28;20187;-69
2023/08/26 06:19:20;;;;;;;5.30;2.23;;;;;;;14.87;79.40;100779.38;5053875;28;20226;-70
2023/08/26 06:21:47;;;;;;;2.60;2.33;;;;;;;14.98;79.60;100787.03;5054179;28;20202;-69
2023/08/26 06:24:13;;;;;;;3.90;2.57;;;;;;;15.01;79.60;100788.53;5053315;28;20218;-69
2023/08/26 06:26:40;;;;;;;11.10;2.70;;;;;;;15.16;78.48;100780.50;5053829;28;20199;-69
2023/08/26 06:29:06;;;;;;;5.80;2.63;;;;;;;15.07;78.16;100787.81;5053797;28;20302;-69
2023/08/26 06:31:33;;;;;;;2.60;2.40;;;;;;;15.19;78.37;100794.44;5053949;28;20192;-69
2023/08/26 06:34:00;;;;;;;3.17;2.37;;;;;;;15.29;77.82;100795.06;5054249;28;20187;-69
2023/08/26 06:36:26;;;;;;;4.20;2.53;;;;;;;15.25;77.79;100796.44;5053872;28;20198;-69
2023/08/26 06:38:53;;;;;;;2.67;2.57;;;;;;;15.31;77.36;100801.13;5054925;28;20229;-69
2023/08/26 06:41:20;;;;;;;2.90;2.80;;;;;;;15.37;76.24;100802.22;5055140;28;20236;-69
2023/08/26 06:43:46;;;;;;;2.73;2.30;;;;;;;15.46;76.62;100799.28;5053452;28;20211;-69
2023/08/26 06:46:20;;;;;;;3.50;2.33;;;;;;;15.48;76.96;100799.13;5053788;28;20249;-69
2023/08/26 06:48:47;;;;;;;3.23;2.93;;;;;;;15.64;75.46;100799.00;5053344;28;20219;-69
2023/08/26 06:51:13;;;;;;;5.43;2.90;;;;;;;15.60;76.31;100796.84;5054888;28;20187;-69
2023/08/26 06:53:39;;;;;;;11.23;1.90;;;;;;;15.66;77.17;100791.56;5054508;28;20184;-69
2023/08/26 06:56:06;;;;;;;2.97;2.30;;;;;;;15.72;76.38;100796.22;5054391;28;20602;-69
2023/08/26 06:58:32;;;;;;;9.27;2.83;;;;;;;15.79;74.50;100783.69;5054344;28;20207;-69
2023/08/26 07:00:59;;;;;;;4.03;2.50;;;;;;;15.88;74.31;100785.28;5054423;28;20245;-69
2023/08/26 07:03:26;;;;;;;8.00;2.57;;;;;;;15.88;74.50;100800.59;5054601;28;20203;-69
2023/08/26 07:05:53;;;;;;;2.20;2.20;;;;;;;15.89;74.18;100799.59;5054348;28;20217;-69
2023/08/26 07:08:20;;;;;;;2.20;2.10;;;;;;;15.97;74.14;100802.22;5054233;28;20567;-69
2023/08/26 07:10:47;;;;;;;4.33;2.27;;;;;;;16.02;73.56;100807.03;5054302;28;20736;-69
2023/08/26 07:13:14;;;;;;;3.70;2.50;;;;;;;16.05;74.25;100801.28;5054266;28;20191;-69
2023/08/26 07:15:40;;;;;;;6.10;1.90;;;;;;;16.03;73.14;100796.09;5054755;28;20195;-68
2023/08/26 07:18:07;;;;;;;4.77;3.27;;;;;;;16.10;72.89;100801.56;5054633;28;20234;-69
2023/08/26 07:20:33;;;;;;;2.50;1.70;;;;;;;16.21;71.98;100790.31;5054351;28;20612;-69
2023/08/26 07:23:00;;;;;;;2.23;2.13;;;;;;;16.25;72.97;100797.03;5053942;28;20285;-69
2023/08/26 07:25:27;;;;;;;2.37;2.17;;;;;;;16.25;72.30;100795.13;5053939;28;20183;-69
2023/08/26 07:27:53;;;;;;;6.00;2.20;;;;;;;16.20;72.79;100792.19;5053849;28;20202;-69
2023/08/26 07:30:21;;;;;;;5.13;2.20;;;;;;;16.22;72.22;100791.97;5054076;28;20280;-68
2023/08/26 07:32:47;;;;;;;4.30;2.40;;;;;;;16.25;72.15;100797.03;5054124;28;20233;-68
2023/08/26 07:35:14;;;;;;;4.27;2.83;;;;;;;16.34;72.48;100788.63;5053348;28;20175;-68
2023/08/26 07:37:40;;;;;;;3.10;2.90;;;;;;;16.34;71.46;100796.72;5053754;28;20203;-68
2023/08/26 07:40:12;;;;;;;4.63;3.17;;;;;;;16.20;71.49;100788.66;5054354;28;20172;-68
2023/08/26 07:42:39;;;;;;;2.60;2.50;;;;;;;16.22;72.98;100798.22;5053683;28;20554;-68
2023/08/26 07:45:06;;;;;;;2.57;2.47;;;;;;;16.20;71.83;100794.88;5053607;28;20191;-68
2023/08/26 07:47:32;;;;;;;10.67;2.23;;;;;;;16.24;72.90;100785.38;5053519;28;20233;-68
2023/08/26 07:50:02;;;;;;;3.67;2.80;;;;;;;16.34;70.62;100787.78;5053532;28;20190;-68
2023/08/26 07:52:29;;;;;;;6.03;2.93;;;;;;;16.39;71.78;100790.75;5053501;28;20195;-68
2023/08/26 07:54:56;;;;;;;2.43;2.30;;;;;;;16.48;72.49;100786.09;5053809;28;20175;-68
2023/08/26 07:57:22;;;;;;;7.80;2.37;;;;;;;16.54;71.34;100785.34;5053609;28;20657;-68
2023/08/26 07:59:48;;;;;;;4.20;2.63;;;;;;;16.56;71.51;100786.00;5053557;28;20191;-67
2023/08/26 08:02:16;;;;;;;7.40;3.30;;;;;;;16.57;69.66;100787.66;5053571;28;20194;-68
2023/08/26 08:04:43;;;;;;;7.60;3.00;;;;;;;16.64;70.19;100783.22;5053537;28;20241;-68
2023/08/26 08:07:09;;;;;;;3.17;3.00;;;;;;;16.78;70.45;100783.19;5053603;28;20172;-71
2023/08/26 08:09:36;;;;;;;2.83;2.27;;;;;;;16.84;68.93;100792.41;5053189;28;20229;-72
2023/08/26 08:12:03;;;;;;;6.50;2.67;;;;;;;16.79;69.23;100786.72;5054084;28;20576;-72
2023/08/26 08:14:30;;;;;;;2.80;2.60;;;;;;;16.81;69.00;100795.47;5053144;28;20198;-72
2023/08/26 08:16:56;;;;;;;2.73;2.57;;;;;;;16.87;68.00;100792.00;5053209;28;20195;-72
2023/08/26 08:19:24;;;;;;;7.70;2.70;;;;;;;16.81;69.90;100790.91;5053342;28;20210;-71
2023/08/26 08:21:51;;;;;;;3.60;2.90;;;;;;;16.98;69.74;100805.00;5053031;28;20182;-71
2023/08/26 08:24:17;;;;;;;3.60;3.10;;;;;;;17.01;68.47;100793.00;5053747;28;20689;-72
2023/08/26 08:26:43;;;;;;;3.33;3.13;;;;;;;17.06;69.70;100787.84;5052997;28;20189;-72
2023/08/26 08:29:10;;;;;;;3.40;3.13;;;;;;;17.10;68.85;100795.34;5053196;28;20206;-71
2023/08/26 08:31:37;;;;;;;5.60;2.63;;;;;;;17.10;68.05;100798.06;5053453;28;20191;-72
2023/08/26 08:34:04;;;;;;;5.53;3.57;;;;;;;17.13;67.76;100803.09;5052991;28;20191;-72
2023/08/26 08:36:30;;;;;;;3.20;3.10;;;;;;;17.02;68.13;100811.69;5052947;28;20187;-72
2023/08/26 08:38:57;;;;;;;3.50;3.20;;;;;;;16.99;68.13;100819.34;5052864;28;20215;-71
2023/08/26 08:41:23;;;;;;;3.37;3.17;;;;;;;16.90;68.45;100810.53;5053161;28;20187;-71
2023/08/26 08:44:00;;;;;;;6.37;4.03;;;;;;;16.98;68.80;100807.69;5052743;28;20207;-72
2023/08/26 08:46:27;;;;;;;3.63;3.53;;;;;;;17.01;68.82;100812.75;5053952;28;20520;-71
2023/08/26 08:48:53;;;;;;;3.40;3.20;;;;;;;17.04;68.79;100816.91;5057296;28;20207;-71
2023/08/26 08:51:21;;;;;;;4.40;4.30;;;;;;;17.09;69.38;100806.38;5057680;28;20187;-71
2023/08/26 08:53:49;;;;;;;9.80;3.40;;;;;;;17.24;69.21;100815.25;5056854;28;20191;-71
2023/08/26 08:56:16;;;;;;;4.07;3.90;;;;;;;17.37;69.93;100812.69;5056824;28;20187;-71
2023/08/26 08:58:51;;;;;;;3.50;3.47;;;;;;;17.48;68.86;100814.88;5056689;28;20210;-71
2023/08/26 09:01:20;;;;;;;4.93;3.70;;;;;;;17.62;68.73;100810.44;5057051;28;20236;-71
2023/08/26 09:03:47;;;;;;;4.83;3.77;;;;;;;17.80;67.46;100814.34;5056519;28;20302;-71
2023/08/26 09:06:13;;;;;;;4.67;4.40;;;;;;;17.97;67.29;100812.16;5056574;28;20206;-71
2023/08/26 09:08:42;;;;;;;4.47;4.17;;;;;;;18.03;66.58;100818.66;5056587;28;20317;-71
2023/08/26 09:11:09;;;;;;;4.03;3.73;;;;;;;18.12;66.06;100810.19;5056531;28;20195;-71
2023/08/26 09:13:35;;;;;;;4.73;3.50;;;;;;;18.23;65.91;100811.50;5056378;28;20195;-71
2023/08/26 09:16:02;;;;;;;9.40;3.23;;;;;;;18.22;65.66;100824.19;5056419;28;20187;-71
2023/08/26 09:18:29;;;;;;;3.63;3.40;;;;;;;18.19;65.93;100815.66;5056759;28;20650;-72
2023/08/26 09:20:56;;;;;;;2.57;2.43;;;;;;;18.08;64.56;100811.59;5056566;28;20238;-72
2023/08/26 09:23:22;;;;;;;2.63;2.53;;;;;;;18.06;67.69;100815.56;5056537;28;20207;-72
2023/08/26 09:25:56;;;;;;;2.97;2.97;;;;;;;18.14;67.25;100812.69;5056226;28;20200;-72
2023/08/26 09:28:26;;;;;;;3.53;3.23;;;;;;;18.41;65.37;100811.00;5056166;28;20303;-71
2023/08/26 09:31:06;;;;;;;4.10;2.37;;;;;;;18.44;65.91;100810.56;5056451;28;20195;-72
2023/08/26 09:33:33;;;;;;;3.17;3.13;;;;;;;18.46;64.38;100808.53;5056630;28;20187;-72
2023/08/26 09:36:00;;;;;;;4.53;3.30;;;;;;;18.52;65.76;100808.56;5056949;28;20537;-71
2023/08/26 09:38:47;;;;;;;3.07;2.67;;;;;;;18.55;65.69;100801.91;5056035;28;20211;-72
2023/08/26 09:41:19;;;;;;;5.60;2.73;;;;;;;18.51;64.84;100808.72;5056342;28;20179;-71
2023/08/26 09:43:47;;;;;;;7.40;2.97;;;;;;;18.52;65.43;100800.44;5056156;28;20230;-71
2023/08/26 09:46:19;;;;;;;3.43;3.23;;;;;;;18.64;62.74;100809.66;5056172;28;20196;-71
2023/08/26 09:48:49;;;;;;;2.13;2.13;;;;;;;18.63;61.36;100805.28;5056130;28;20207;-68
2023/08/26 09:51:25;;;;;;;2.40;2.40;;;;;;;18.61;62.31;100798.41;5056060;28;20191;-67
2023/08/26 09:53:53;;;;;;;4.27;2.30;;;;;;;18.70;63.44;100802.59;5056076;28;20179;-67
2023/08/26 09:56:23;;;;;;;2.47;2.47;;;;;;;18.83;64.08;100801.81;5056216;28;20191;-67
2023/08/26 09:58:54;;;;;;;1.97;1.93;;;;;;;18.87;64.09;100806.63;5055275;28;20203;-68
2023/08/26 10:01:22;;;;;;;5.70;2.43;;;;;;;18.95;62.60;100811.03;5055636;28;20184;-67
2023/08/26 10:03:54;;;;;;;2.73;2.20;;;;;;;19.05;62.12;100808.78;5055707;28;20219;-67
2023/08/26 10:06:25;;;;;;;2.10;1.90;;;;;;;19.15;61.56;100807.31;5055519;28;20190;-67
2023/08/26 10:09:05;;;;;;;2.20;1.70;;;;;;;19.14;61.10;100805.63;5055623;28;20253;-67
2023/08/26 10:11:36;;;;;;;2.33;2.23;;;;;;;19.27;61.97;100820.25;5055695;28;20167;-67
2023/08/26 10:14:05;;;;;;;2.40;2.30;;;;;;;19.32;61.54;100815.91;5055217;28;20195;-67
2023/08/26 10:16:32;;;;;;;3.50;2.30;;;;;;;19.21;61.08;100808.38;5055585;28;20529;-67
2023/08/26 10:19:03;;;;;;;2.63;2.63;;;;;;;19.27;61.37;100809.41;5056016;28;20575;-68
2023/08/26 10:21:31;;;;;;;2.03;2.03;;;;;;;19.31;61.56;100814.22;5056001;28;20249;-68
2023/08/26 10:23:58;;;;;;;2.77;2.67;;;;;;;19.26;60.44;100814.03;5055414;28;20199;-68
2023/08/26 10:26:25;;;;;;;2.43;2.33;;;;;;;19.16;61.78;100809.00;5055711;28;20191;-67
2023/08/26 10:28:55;;;;;;;4.57;2.30;;;;;;;19.20;62.34;100811.28;5055254;28;20756;-68
2023/08/26 10:31:31;;;;;;;2.73;2.53;;;;;;;19.21;61.28;100810.25;5055292;28;20194;-68
2023/08/26 10:34:07;;;;;;;6.80;1.80;;;;;;;19.21;60.21;100812.97;5055010;28;20640;-68
2023/08/26 10:36:35;;;;;;;2.30;2.10;;;;;;;19.24;63.34;100816.09;5055491;28;20186;-68
2023/08/26 10:39:03;;;;;;;2.30;2.20;;;;;;;19.36;60.38;100810.88;5055051;28;20579;-67
2023/08/26 10:41:30;;;;;;;2.50;2.50;;;;;;;19.47;60.46;100804.91;5054815;28;20195;-67
2023/08/26 10:44:01;;;;;;;1.87;1.80;;;;;;;19.55;59.46;100810.97;5055297;28;20531;-67
2023/08/26 10:46:36;;;;;;;1.93;1.93;;;;;;;19.59;57.60;100814.91;5054967;28;20234;-68
2023/08/26 10:49:04;;;;;;;3.33;1.97;;;;;;;19.48;58.11;100822.81;5054916;28;20302;-67
2023/08/26 10:51:31;;;;;;;1.80;1.70;;;;;;;19.60;58.21;100807.63;5054053;28;20191;-67
2023/08/26 10:54:02;;;;;;;5.60;1.80;;;;;;;19.74;59.20;100813.84;5054883;28;20237;-67
2023/08/26 10:56:33;;;;;;;1.77;1.73;;;;;;;19.87;57.27;100800.28;5055179;28;20180;-67
2023/08/26 10:59:04;;;;;;;2.57;1.70;;;;;;;19.89;58.29;100798.22;5054745;28;20586;-67
2023/08/26 11:01:35;;;;;;;2.23;2.13;;;;;;;19.90;59.68;100803.41;5054970;28;20179;-67
2023/08/26 11:04:05;;;;;;;2.20;2.10;;;;;;;19.83;60.21;100804.47;5054858;28;20217;-67
2023/08/26 11:06:37;;;;;;;4.00;1.73;;;;;;;19.78;59.49;100802.38;5054382;28;20209;-67
2023/08/26 11:09:04;;;;;;;2.93;1.60;;;;;;;19.86;57.58;100802.16;5054557;28;20203;-68
2023/08/26 11:11:32;;;;;;;1.80;1.70;;;;;;;19.77;57.49;100805.31;5054357;28;20183;-68
2023/08/26 11:13:58;;;;;;;1.50;1.50;;;;;;;19.76;58.37;100796.34;5054128;28;20717;-68
2023/08/26 11:16:25;;;;;;;1.30;1.30;;;;;;;19.65;56.56;100805.09;5054147;28;20601;-67
2023/08/26 11:18:55;;;;;;;1.80;1.43;;;;;;;19.63;57.82;100807.19;5054347;28;20210;-67
2023/08/26 11:21:22;;;;;;;1.73;1.73;;;;;;;19.76;58.85;100799.06;5054475;28;20176;-68
2023/08/26 11:23:51;;;;;;;1.80;1.67;;;;;;;19.88;58.43;100801.97;5054070;28;20547;-67